ENML/MOL METAR and TAF weather

Enter ICAO airport designator
Station Type Date Time Source
ENML METAR 2020/09/25 20:20 UTC NOAA

ENML 252020Z AUTO 07014KT 9999NDV OVC150/// 09/03 Q1011


Station Type Date Time Source
ENML Decoded METAR 2020/09/25 20:20 UTC NOAA

Molde / Aro, Norway (ENML) 62-45N 007-16E 3M
Sep 25, 2020 - 04:20 PM EDT / 2020.09.25 2020 UTC
Wind: from the ENE (070 degrees) at 16 MPH (14 KT):0
Sky conditions: overcast
Temperature: 48 F (9 C)
Dew Point: 37 F (3 C)
Relative Humidity: 66%
Pressure (altimeter): 29.85 in. Hg (1011 hPa)
ob: ENML 252020Z AUTO 07014KT 9999NDV OVC150/// 09/03 Q1011
cycle: 20

Station Type Date Time Source
ENML TAF UTC NOAA

Error!

Example: see airport list